createdAt,value
2022-10-26T00:01:08.129Z,2.57
2022-10-26T00:04:10.788Z,3.30
2022-10-26T00:07:13.394Z,2.70
2022-10-26T00:10:16.468Z,2.50
2022-10-26T00:13:20.386Z,2.60
2022-10-26T00:16:24.298Z,2.27
2022-10-26T00:19:27.050Z,1.97
2022-10-26T00:22:29.762Z,2.40
2022-10-26T00:25:32.394Z,3.17
2022-10-26T00:28:36.994Z,2.30
2022-10-26T00:31:39.768Z,3.30
2022-10-26T00:34:42.432Z,2.55
2022-10-26T00:37:45.253Z,2.60
2022-10-26T00:40:48.083Z,2.28
2022-10-26T00:43:52.767Z,2.53
2022-10-26T00:46:55.465Z,3.30
2022-10-26T00:50:02.938Z,2.17
2022-10-26T00:53:06.598Z,2.20
2022-10-26T00:56:09.617Z,2.10
2022-10-26T00:59:14.414Z,2.03
2022-10-26T01:02:17.444Z,2.33
2022-10-26T01:05:20.422Z,2.55
2022-10-26T01:08:23.855Z,2.38
2022-10-26T01:11:26.546Z,2.45
2022-10-26T01:14:31.933Z,2.00
2022-10-26T01:17:44.772Z,2.50
2022-10-26T01:21:38.625Z,1.92
2022-10-26T01:24:54.139Z,2.28
2022-10-26T01:27:57.251Z,1.90
2022-10-26T01:31:03.117Z,2.38
2022-10-26T01:34:10.311Z,2.60
2022-10-26T01:37:15.193Z,2.07
2022-10-26T01:40:22.697Z,2.57
2022-10-26T01:43:26.590Z,2.47
2022-10-26T01:46:34.671Z,2.40
2022-10-26T01:49:40.674Z,1.60
2022-10-26T01:52:43.337Z,2.10
2022-10-26T01:55:49.544Z,2.03
2022-10-26T01:59:05.650Z,2.43
2022-10-26T02:02:30.852Z,1.50
2022-10-26T02:05:42.196Z,1.70
2022-10-26T02:08:58.394Z,2.10
2022-10-26T02:12:04.464Z,1.90
2022-10-26T02:15:08.793Z,2.03
2022-10-26T02:18:19.464Z,1.70
2022-10-26T02:21:26.671Z,1.50
2022-10-26T02:24:29.840Z,1.40
2022-10-26T02:27:36.108Z,1.52
2022-10-26T02:30:40.570Z,1.83
2022-10-26T02:36:50.640Z,1.60
2022-10-26T02:39:54.036Z,1.50
2022-10-26T02:43:00.458Z,1.75
2022-10-26T02:46:06.528Z,2.17
2022-10-26T02:49:10.491Z,1.70
2022-10-26T02:52:18.409Z,1.50
2022-10-26T02:55:23.977Z,1.63
2022-10-26T02:58:28.992Z,1.70
2022-10-26T03:01:32.394Z,2.00
2022-10-26T03:04:36.902Z,1.92
2022-10-26T03:07:39.599Z,1.57
2022-10-26T03:10:43.711Z,1.20
2022-10-26T03:13:46.425Z,1.87
2022-10-26T03:16:49.077Z,1.52
2022-10-26T03:19:53.052Z,1.35
2022-10-26T03:22:56.973Z,1.43
2022-10-26T03:26:00.093Z,1.83
2022-10-26T03:29:02.818Z,1.95
2022-10-26T03:32:06.060Z,1.70
2022-10-26T03:35:10.457Z,1.85
2022-10-26T03:38:15.951Z,1.90
2022-10-26T03:41:18.893Z,1.70
2022-10-26T03:44:21.589Z,2.33
2022-10-26T03:47:24.423Z,1.67
2022-10-26T03:50:28.374Z,2.15
2022-10-26T03:53:31.171Z,2.20
2022-10-26T03:56:33.812Z,2.20
2022-10-26T03:59:37.233Z,2.13
2022-10-26T04:02:39.784Z,2.33
2022-10-26T04:05:43.937Z,2.90
2022-10-26T04:08:46.568Z,2.07
2022-10-26T04:11:49.436Z,2.33
2022-10-26T04:14:52.181Z,2.58
2022-10-26T04:17:58.934Z,2.67
2022-10-26T04:21:03.628Z,2.67
2022-10-26T04:24:06.848Z,3.00
2022-10-26T04:27:09.599Z,2.63
2022-10-26T04:30:13.718Z,2.28
2022-10-26T04:33:18.066Z,2.27
2022-10-26T04:36:22.034Z,2.60
2022-10-26T04:39:25.700Z,2.00
2022-10-26T04:42:28.409Z,2.20
2022-10-26T04:45:31.671Z,2.65
2022-10-26T04:48:34.344Z,2.42
2022-10-26T04:51:38.336Z,2.90
2022-10-26T04:54:41.118Z,2.77
2022-10-26T04:57:46.241Z,2.85
2022-10-26T05:00:49.216Z,3.27
2022-10-26T05:03:53.150Z,2.70
2022-10-26T05:06:57.101Z,3.00
2022-10-26T05:09:59.750Z,2.50
2022-10-26T05:13:02.611Z,2.33
2022-10-26T05:16:05.937Z,2.53
2022-10-26T05:19:08.561Z,2.40
2022-10-26T05:22:12.799Z,2.88
2022-10-26T05:25:15.589Z,2.73
2022-10-26T05:28:19.024Z,2.72
2022-10-26T05:31:22.311Z,2.72
2022-10-26T05:34:25.036Z,2.63
2022-10-26T05:37:30.806Z,3.17
2022-10-26T05:40:33.492Z,2.93
2022-10-26T05:43:36.202Z,2.83
2022-10-26T05:46:38.846Z,2.50
2022-10-26T05:49:41.577Z,2.60
2022-10-26T05:52:46.986Z,2.10
2022-10-26T05:55:50.587Z,3.00
2022-10-26T05:58:53.683Z,3.37
2022-10-26T06:02:05.562Z,2.78
2022-10-26T06:05:11.098Z,2.73
2022-10-26T06:08:15.723Z,3.17
2022-10-26T06:11:19.296Z,2.50
2022-10-26T06:17:36.033Z,2.90
2022-10-26T06:20:47.737Z,2.97
2022-10-26T06:23:55.639Z,2.80
2022-10-26T06:27:06.513Z,3.30
2022-10-26T06:30:11.857Z,2.87
2022-10-26T06:33:29.001Z,3.30
2022-10-26T06:36:33.495Z,2.70
2022-10-26T06:42:41.063Z,2.53
2022-10-26T06:45:46.752Z,2.60
2022-10-26T06:48:53.176Z,2.60
2022-10-26T06:51:58.906Z,2.07
2022-10-26T06:55:05.146Z,2.80
2022-10-26T06:58:10.397Z,2.63
2022-10-26T07:01:13.999Z,2.50
2022-10-26T07:07:20.278Z,3.10
2022-10-26T07:10:24.218Z,3.40
2022-10-26T07:13:26.802Z,4.47
2022-10-26T07:16:29.527Z,2.47
2022-10-26T07:19:32.254Z,1.77
2022-10-26T07:22:34.855Z,1.77
2022-10-26T07:25:40.583Z,1.92
2022-10-26T07:28:43.389Z,1.77
2022-10-26T07:31:46.123Z,1.15
2022-10-26T07:34:48.898Z,1.63
2022-10-26T07:37:51.496Z,1.50
2022-10-26T07:40:55.962Z,1.02
2022-10-26T07:43:58.790Z,1.53
2022-10-26T07:47:01.648Z,1.25
2022-10-26T07:50:05.934Z,1.52
2022-10-26T07:53:08.627Z,1.53
2022-10-26T07:56:12.791Z,1.38
2022-10-26T07:59:15.744Z,1.20
2022-10-26T08:02:19.166Z,1.60
2022-10-26T08:08:24.488Z,1.40
2022-10-26T08:11:28.712Z,1.60
2022-10-26T08:14:31.589Z,1.40
2022-10-26T08:17:34.317Z,1.75
2022-10-26T08:20:36.984Z,1.25
2022-10-26T08:23:40.095Z,1.80
2022-10-26T08:26:44.308Z,1.35
2022-10-26T08:29:46.911Z,1.63
2022-10-26T08:32:49.809Z,1.60
2022-10-26T08:35:56.628Z,1.35
2022-10-26T08:42:08.597Z,1.70
2022-10-26T08:45:15.335Z,1.33
2022-10-26T08:48:20.829Z,1.37
2022-10-26T08:51:25.285Z,1.50
2022-10-26T08:54:35.996Z,1.03
2022-10-26T08:57:42.392Z,1.30
2022-10-26T09:00:46.405Z,1.50
2022-10-26T09:03:49.021Z,1.47
2022-10-26T09:06:58.260Z,2.00
2022-10-26T09:10:05.913Z,1.70
2022-10-26T09:13:20.607Z,1.80
2022-10-26T09:16:29.098Z,1.27
2022-10-26T09:19:50.616Z,2.23
2022-10-26T09:22:57.976Z,2.57
2022-10-26T09:26:01.897Z,2.43
2022-10-26T09:29:07.027Z,1.77
2022-10-26T09:32:14.499Z,1.40
2022-10-26T09:35:20.143Z,1.30
2022-10-26T09:38:26.341Z,1.37
2022-10-26T09:41:33.003Z,1.47
2022-10-26T09:44:40.519Z,1.33
2022-10-26T09:47:46.083Z,1.40
2022-10-26T09:50:51.421Z,1.70
2022-10-26T09:53:55.170Z,1.70
2022-10-26T09:57:01.767Z,1.40
2022-10-26T10:00:07.383Z,1.20
2022-10-26T10:03:19.774Z,2.10
2022-10-26T10:06:25.815Z,1.50
2022-10-26T10:09:28.647Z,1.43
2022-10-26T10:12:31.282Z,1.63
2022-10-26T10:15:35.535Z,2.00
2022-10-26T10:18:39.123Z,2.20
2022-10-26T10:21:46.155Z,1.70
2022-10-26T10:24:55.478Z,1.60
2022-10-26T10:27:58.107Z,1.83
2022-10-26T10:31:03.613Z,1.75
2022-10-26T10:34:17.454Z,1.90
2022-10-26T10:37:25.566Z,1.40
2022-10-26T10:40:30.742Z,1.10
2022-10-26T10:43:33.921Z,1.77
2022-10-26T10:49:42.656Z,1.70
2022-10-26T10:52:45.785Z,1.60
2022-10-26T10:59:09.782Z,1.80
2022-10-26T11:02:42.930Z,1.60
2022-10-26T11:05:53.664Z,1.57
2022-10-26T11:09:00.773Z,1.40
2022-10-26T11:12:05.513Z,1.63
2022-10-26T11:15:12.344Z,1.70
2022-10-26T11:18:19.527Z,1.87
2022-10-26T11:21:28.195Z,2.20
2022-10-26T11:24:34.529Z,1.73
2022-10-26T11:27:40.859Z,1.50
2022-10-26T11:30:47.526Z,1.30
2022-10-26T11:34:03.084Z,1.27
2022-10-26T11:37:10.483Z,1.40
2022-10-26T11:40:23.891Z,1.37
2022-10-26T11:43:32.235Z,1.77
2022-10-26T11:46:39.125Z,1.30
2022-10-26T11:49:46.220Z,1.97
2022-10-26T11:52:52.544Z,1.40
2022-10-26T11:55:56.450Z,1.50
2022-10-26T11:59:00.098Z,1.67
2022-10-26T12:02:06.000Z,1.60
2022-10-26T12:05:20.849Z,1.27
2022-10-26T12:08:27.622Z,1.37
2022-10-26T12:11:38.190Z,1.87
2022-10-26T12:14:44.162Z,1.90
2022-10-26T12:17:52.460Z,1.77
2022-10-26T12:21:02.663Z,1.73
2022-10-26T12:24:28.940Z,1.70
2022-10-26T12:27:33.641Z,1.40
2022-10-26T12:30:37.991Z,1.52
2022-10-26T12:33:50.545Z,0.90
2022-10-26T12:37:25.224Z,1.20
2022-10-26T12:40:42.907Z,1.42
2022-10-26T12:43:45.693Z,1.17
2022-10-26T12:46:48.387Z,0.93
2022-10-26T12:50:00.875Z,1.17
2022-10-26T12:53:09.322Z,1.15
2022-10-26T12:56:14.894Z,1.20
2022-10-26T12:59:29.220Z,1.30
2022-10-26T13:02:41.341Z,1.00
2022-10-26T13:06:00.231Z,1.63
2022-10-26T13:12:16.740Z,1.75
2022-10-26T13:18:24.025Z,1.30
2022-10-26T13:21:27.643Z,1.50
2022-10-26T13:24:33.044Z,1.27
2022-10-26T13:27:43.731Z,1.40
2022-10-26T13:30:48.626Z,1.08
2022-10-26T13:33:52.664Z,1.60
2022-10-26T13:37:02.818Z,1.65
2022-10-26T13:40:08.379Z,1.75
2022-10-26T13:43:17.929Z,1.10
2022-10-26T13:46:25.411Z,1.85
2022-10-26T13:49:32.013Z,1.25
2022-10-26T13:52:37.061Z,1.38
2022-10-26T13:55:53.215Z,1.00
2022-10-26T13:59:00.658Z,1.48
2022-10-26T14:02:17.619Z,1.55
2022-10-26T14:05:20.686Z,1.48
2022-10-26T14:08:23.771Z,1.10
2022-10-26T14:11:33.804Z,1.48
2022-10-26T14:14:37.676Z,1.30
2022-10-26T14:17:40.276Z,1.70
2022-10-26T14:20:49.041Z,1.35
2022-10-26T14:23:55.799Z,0.95
2022-10-26T14:26:59.930Z,1.08
2022-10-26T14:30:21.698Z,1.40
2022-10-26T14:33:28.966Z,1.35
2022-10-26T14:36:35.099Z,1.38
2022-10-26T14:39:40.960Z,1.38
2022-10-26T14:42:50.076Z,1.80
2022-10-26T14:45:54.258Z,1.80
2022-10-26T14:48:58.437Z,1.52
2022-10-26T14:52:05.766Z,1.70
2022-10-26T14:55:14.691Z,1.40
2022-10-26T14:58:26.615Z,1.10
2022-10-26T15:01:36.135Z,2.05
2022-10-26T15:04:40.846Z,1.33
2022-10-26T15:07:44.693Z,1.80
2022-10-26T15:10:48.816Z,1.30
2022-10-26T15:13:53.799Z,1.98
2022-10-26T15:16:58.406Z,1.60
2022-10-26T15:20:04.633Z,2.00
2022-10-26T15:23:07.479Z,1.33
2022-10-26T15:29:45.567Z,1.80
2022-10-26T15:32:48.816Z,2.30
2022-10-26T15:35:51.704Z,1.70
2022-10-26T15:38:55.611Z,1.83
2022-10-26T15:41:58.216Z,2.30
2022-10-26T15:45:02.224Z,3.20
2022-10-26T15:48:20.053Z,1.73
2022-10-26T15:51:22.723Z,2.03
2022-10-26T15:54:25.548Z,1.75
2022-10-26T15:57:28.451Z,1.73
2022-10-26T16:00:32.431Z,2.25
2022-10-26T16:03:35.104Z,2.23
2022-10-26T16:06:39.109Z,2.58
2022-10-26T16:09:42.137Z,2.80
2022-10-26T16:12:44.760Z,1.77
2022-10-26T16:15:48.918Z,2.72
2022-10-26T16:19:06.126Z,2.33
2022-10-26T16:22:14.826Z,1.95
2022-10-26T16:25:18.800Z,2.60
2022-10-26T16:28:21.436Z,1.70
2022-10-26T16:31:25.393Z,2.38
2022-10-26T16:34:28.122Z,2.73
2022-10-26T16:37:31.352Z,2.72
2022-10-26T16:40:33.930Z,2.58
2022-10-26T16:43:38.383Z,2.70
2022-10-26T16:46:42.410Z,2.33
2022-10-26T16:49:45.053Z,2.50
2022-10-26T16:52:47.978Z,2.88
2022-10-26T16:55:50.559Z,3.05
2022-10-26T16:58:53.298Z,2.97
2022-10-26T17:01:57.638Z,2.42
2022-10-26T17:05:04.165Z,3.57
2022-10-26T17:08:10.990Z,4.03
2022-10-26T17:11:14.745Z,3.23
2022-10-26T17:14:17.418Z,2.50
2022-10-26T17:17:21.341Z,2.72
2022-10-26T17:20:24.044Z,15.53
2022-10-26T17:23:26.779Z,9.13
2022-10-26T17:26:29.800Z,5.78
2022-10-26T17:29:32.494Z,3.42
2022-10-26T17:32:37.533Z,3.20
2022-10-26T17:35:40.288Z,3.20
2022-10-26T17:38:44.107Z,3.65
2022-10-26T17:41:47.459Z,2.90
2022-10-26T17:47:54.306Z,2.93
2022-10-26T17:50:59.555Z,2.20
2022-10-26T17:54:02.182Z,2.70
2022-10-26T17:57:04.958Z,2.72
2022-10-26T18:00:08.829Z,2.58
2022-10-26T18:03:12.831Z,2.47
2022-10-26T18:06:17.194Z,3.80
2022-10-26T18:09:20.982Z,2.30
2022-10-26T18:12:24.523Z,3.00
2022-10-26T18:15:27.264Z,4.20
2022-10-26T18:18:33.095Z,4.18
2022-10-26T18:21:38.582Z,2.67
2022-10-26T18:24:41.683Z,3.03
2022-10-26T18:27:44.318Z,3.50
2022-10-26T18:30:47.118Z,5.10
2022-10-26T18:33:55.636Z,3.00
2022-10-26T18:36:58.464Z,2.70
2022-10-26T18:40:01.907Z,3.42
2022-10-26T18:46:08.898Z,3.63
2022-10-26T18:49:14.017Z,3.10
2022-10-26T18:52:16.774Z,2.90
2022-10-26T18:55:19.418Z,3.03
2022-10-26T18:58:22.953Z,4.57
2022-10-26T19:01:27.242Z,3.13
2022-10-26T19:04:31.541Z,3.10
2022-10-26T19:07:34.700Z,3.17
2022-10-26T19:10:37.394Z,3.00
2022-10-26T19:13:40.254Z,3.42
2022-10-26T19:16:47.177Z,2.97
2022-10-26T19:19:51.912Z,3.00
2022-10-26T19:22:54.698Z,3.40
2022-10-26T19:25:57.343Z,3.00
2022-10-26T19:29:01.435Z,3.35
2022-10-26T19:32:04.912Z,4.40
2022-10-26T19:38:12.832Z,3.57
2022-10-26T19:41:17.911Z,4.00
2022-10-26T19:44:25.326Z,4.37
2022-10-26T19:47:28.357Z,3.60
2022-10-26T19:50:33.951Z,3.20
2022-10-26T19:53:37.119Z,4.47
2022-10-26T19:56:39.991Z,4.38
2022-10-26T19:59:42.653Z,5.43
2022-10-26T20:02:47.071Z,3.60
2022-10-26T20:05:52.647Z,4.60
2022-10-26T20:08:55.564Z,4.10
2022-10-26T20:11:58.343Z,3.45
2022-10-26T20:15:06.869Z,3.45
2022-10-26T20:18:12.995Z,4.13
2022-10-26T20:21:17.947Z,4.83
2022-10-26T20:24:20.609Z,4.20
2022-10-26T20:27:25.243Z,4.60
2022-10-26T20:30:27.938Z,4.43
2022-10-26T20:33:30.654Z,4.60
2022-10-26T20:36:34.672Z,4.70
2022-10-26T20:39:38.912Z,4.00
2022-10-26T20:42:42.816Z,3.67
2022-10-26T20:45:46.404Z,4.30
2022-10-26T20:52:19.632Z,4.37
2022-10-26T20:55:30.912Z,4.03
2022-10-26T20:58:38.960Z,4.30
2022-10-26T21:01:42.615Z,4.80
2022-10-26T21:04:45.648Z,3.90
2022-10-26T21:07:49.978Z,3.65
2022-10-26T21:10:53.058Z,3.93
2022-10-26T21:13:56.162Z,3.95
2022-10-26T21:16:58.881Z,4.25
2022-10-26T21:20:01.649Z,3.75
2022-10-26T21:23:05.754Z,4.65
2022-10-26T21:26:10.187Z,4.00
2022-10-26T21:29:12.980Z,3.80
2022-10-26T21:32:15.690Z,3.65
2022-10-26T21:35:18.452Z,3.35
2022-10-26T21:38:22.486Z,3.40
2022-10-26T21:44:40.927Z,3.83
2022-10-26T21:47:44.890Z,3.67
2022-10-26T21:50:47.499Z,4.55
2022-10-26T21:53:52.828Z,3.85
2022-10-26T21:56:55.460Z,4.30
2022-10-26T21:59:58.135Z,3.92
2022-10-26T22:03:00.920Z,4.18
2022-10-26T22:06:04.075Z,3.63
2022-10-26T22:09:08.563Z,3.72
2022-10-26T22:12:11.256Z,3.73
2022-10-26T22:15:13.989Z,4.07
2022-10-26T22:18:16.735Z,3.20
2022-10-26T22:21:20.737Z,4.05
2022-10-26T22:24:24.785Z,3.63
2022-10-26T22:27:28.986Z,3.83
2022-10-26T22:30:31.650Z,3.20
2022-10-26T22:33:34.688Z,3.50
2022-10-26T22:36:37.739Z,4.18
2022-10-26T22:39:41.773Z,4.63
2022-10-26T22:42:44.553Z,4.90
2022-10-26T22:45:59.837Z,3.90
2022-10-26T22:49:03.394Z,3.10
2022-10-26T22:55:10.561Z,3.70
2022-10-26T22:58:13.266Z,3.87
2022-10-26T23:01:18.520Z,3.90
2022-10-26T23:04:21.265Z,3.53
2022-10-26T23:07:26.074Z,3.55
2022-10-26T23:10:30.204Z,5.07
2022-10-26T23:13:32.825Z,3.63
2022-10-26T23:16:35.430Z,3.75
2022-10-26T23:19:38.152Z,3.83
2022-10-26T23:22:40.811Z,3.40
2022-10-26T23:25:45.066Z,3.50
2022-10-26T23:28:48.197Z,4.03
2022-10-26T23:31:50.805Z,3.72
2022-10-26T23:34:53.527Z,4.13
2022-10-26T23:37:58.567Z,3.58
2022-10-26T23:41:02.710Z,3.77
2022-10-26T23:44:06.016Z,3.90
2022-10-26T23:47:08.683Z,3.22
2022-10-26T23:50:11.417Z,3.80
2022-10-26T23:53:15.982Z,4.15
2022-10-26T23:56:19.962Z,3.90
2022-10-26T23:59:22.644Z,3.67
